Terminal Aerodrome Forecast
Issued by NWS

Home | Current Version | Previous Version | Graphics & Text | Print | Product List | Glossary On
Versions: 1 2 3 4 5 6 7 8 9 10 11 12 13 14 15 16 17 18 19
000
FTUS43 KICT 270520
TAFRSL
TAF
KRSL 270520Z 2706/2806 29011KT P6SM -RA VCTS SCT050 BKN100CB
      TEMPO 2706/2707 VRB20G30KT 2SM +TSRA BKN050CB
     FM271000 11008KT P6SM BKN100
     FM271500 17014KT P6SM SCT250
     FM271800 18021G29KT P6SM SCT250
     FM280200 17015G22KT P6SM SCT250=

USA.gov is the U.S. government's official web portal to all federal, state and local government web resources and services.